sensor_id;sensor_type;location;lat;lon;timestamp;pressure;altitude;pressure_sealevel;temperature;humidity
50774;BME280;36745;48.544;8.918;2023-12-28T00:00:40;97497.47;;;0.21;95.15
50774;BME280;36745;48.544;8.918;2023-12-28T00:04:00;97497.47;;;0.21;96.07
50774;BME280;36745;48.544;8.918;2023-12-28T00:07:20;97508.69;;;0.23;96.47
50774;BME280;36745;48.544;8.918;2023-12-28T00:10:40;97504.41;;;0.22;96.81
50774;BME280;36745;48.544;8.918;2023-12-28T00:13:59;97489.03;;;0.30;96.40
50774;BME280;36745;48.544;8.918;2023-12-28T00:17:19;97492.84;;;0.25;96.88
50774;BME280;36745;48.544;8.918;2023-12-28T00:20:39;97511.09;;;0.28;96.41
50774;BME280;36745;48.544;8.918;2023-12-28T00:23:59;97507.88;;;0.19;96.39
50774;BME280;36745;48.544;8.918;2023-12-28T00:27:19;97498.31;;;0.29;96.62
50774;BME280;36745;48.544;8.918;2023-12-28T00:30:38;97490.97;;;0.29;96.70
50774;BME280;36745;48.544;8.918;2023-12-28T00:33:58;97494.91;;;0.35;96.69
50774;BME280;36745;48.544;8.918;2023-12-28T00:37:18;97507.03;;;0.45;96.69
50774;BME280;36745;48.544;8.918;2023-12-28T00:40:38;97519.41;;;0.43;96.50
50774;BME280;36745;48.544;8.918;2023-12-28T00:43:57;97512.44;;;0.41;96.46
50774;BME280;36745;48.544;8.918;2023-12-28T00:47:17;97514.00;;;0.43;96.33
50774;BME280;36745;48.544;8.918;2023-12-28T00:50:37;97515.53;;;0.43;96.33
50774;BME280;36745;48.544;8.918;2023-12-28T00:53:57;97513.25;;;0.46;96.83
50774;BME280;36745;48.544;8.918;2023-12-28T00:57:17;97505.09;;;0.46;96.47
50774;BME280;36745;48.544;8.918;2023-12-28T01:00:36;97501.97;;;0.43;96.30
50774;BME280;36745;48.544;8.918;2023-12-28T01:03:56;97508.25;;;0.48;96.02
50774;BME280;36745;48.544;8.918;2023-12-28T01:07:16;97507.84;;;0.49;96.08
50774;BME280;36745;48.544;8.918;2023-12-28T01:10:36;97511.63;;;0.37;95.82
50774;BME280;36745;48.544;8.918;2023-12-28T01:13:56;97499.97;;;0.37;96.19
50774;BME280;36745;48.544;8.918;2023-12-28T01:17:17;97508.47;;;0.35;96.39
50774;BME280;36745;48.544;8.918;2023-12-28T01:20:38;97519.31;;;0.35;96.68
50774;BME280;36745;48.544;8.918;2023-12-28T01:23:58;97510.72;;;0.30;96.25
50774;BME280;36745;48.544;8.918;2023-12-28T01:27:18;97513.00;;;0.28;95.80
50774;BME280;36745;48.544;8.918;2023-12-28T01:30:38;97514.94;;;0.27;96.67
50774;BME280;36745;48.544;8.918;2023-12-28T01:34:17;97513.81;;;0.28;97.15
50774;BME280;36745;48.544;8.918;2023-12-28T01:37:37;97515.81;;;0.35;96.92
50774;BME280;36745;48.544;8.918;2023-12-28T01:40:56;97522.03;;;0.35;96.85
50774;BME280;36745;48.544;8.918;2023-12-28T01:44:16;97540.22;;;0.35;96.80
50774;BME280;36745;48.544;8.918;2023-12-28T01:47:36;97541.00;;;0.35;96.19
50774;BME280;36745;48.544;8.918;2023-12-28T01:50:56;97544.69;;;0.20;97.00
50774;BME280;36745;48.544;8.918;2023-12-28T01:54:16;97552.41;;;0.18;97.16
50774;BME280;36745;48.544;8.918;2023-12-28T01:57:36;97562.41;;;0.14;97.79
50774;BME280;36745;48.544;8.918;2023-12-28T02:00:56;97557.81;;;0.18;96.48
50774;BME280;36745;48.544;8.918;2023-12-28T02:04:16;97560.13;;;0.16;96.92
50774;BME280;36745;48.544;8.918;2023-12-28T02:07:36;97557.81;;;0.18;97.08
50774;BME280;36745;48.544;8.918;2023-12-28T02:10:56;97560.97;;;0.20;97.43
50774;BME280;36745;48.544;8.918;2023-12-28T02:14:16;97559.34;;;0.16;97.00
50774;BME280;36745;48.544;8.918;2023-12-28T02:17:55;97566.94;;;0.07;97.65
50774;BME280;36745;48.544;8.918;2023-12-28T02:21:20;97575.34;;;0.24;97.14
50774;BME280;36745;48.544;8.918;2023-12-28T02:25:04;97576.47;;;0.23;97.38
50774;BME280;36745;48.544;8.918;2023-12-28T02:28:23;97569.47;;;0.22;97.17
50774;BME280;36745;48.544;8.918;2023-12-28T02:31:47;97570.28;;;0.23;96.74
50774;BME280;36745;48.544;8.918;2023-12-28T02:38:51;97576.47;;;0.23;97.83
50774;BME280;36745;48.544;8.918;2023-12-28T02:42:12;97564.16;;;0.29;97.36
50774;BME280;36745;48.544;8.918;2023-12-28T02:45:32;97584.25;;;0.25;97.82
50774;BME280;36745;48.544;8.918;2023-12-28T02:48:52;97572.72;;;0.31;97.37
50774;BME280;36745;48.544;8.918;2023-12-28T02:52:13;97558.88;;;0.40;96.88
50774;BME280;36745;48.544;8.918;2023-12-28T02:55:33;97562.81;;;0.43;95.92
50774;BME280;36745;48.544;8.918;2023-12-28T02:58:52;97556.97;;;0.40;96.43
50774;BME280;36745;48.544;8.918;2023-12-28T03:02:12;97562.72;;;0.35;95.97
50774;BME280;36745;48.544;8.918;2023-12-28T03:05:32;97553.81;;;0.38;96.60
50774;BME280;36745;48.544;8.918;2023-12-28T03:08:52;97555.16;;;0.52;97.37
50774;BME280;36745;48.544;8.918;2023-12-28T03:12:12;97558.25;;;0.50;96.76
50774;BME280;36745;48.544;8.918;2023-12-28T03:15:32;97556.00;;;0.56;96.36
50774;BME280;36745;48.544;8.918;2023-12-28T03:18:52;97551.00;;;0.58;96.87
50774;BME280;36745;48.544;8.918;2023-12-28T03:22:11;97567.16;;;0.51;96.54
50774;BME280;36745;48.544;8.918;2023-12-28T03:25:31;97562.03;;;0.42;95.90
50774;BME280;36745;48.544;8.918;2023-12-28T03:28:51;97569.88;;;0.51;96.44
50774;BME280;36745;48.544;8.918;2023-12-28T03:32:11;97557.06;;;0.48;96.31
50774;BME280;36745;48.544;8.918;2023-12-28T03:35:31;97564.44;;;0.51;96.59
50774;BME280;36745;48.544;8.918;2023-12-28T03:38:51;97565.28;;;0.55;96.19
50774;BME280;36745;48.544;8.918;2023-12-28T03:42:12;97566.06;;;0.55;96.35
50774;BME280;36745;48.544;8.918;2023-12-28T03:45:31;97560.59;;;0.52;96.27
50774;BME280;36745;48.544;8.918;2023-12-28T03:48:51;97566.03;;;0.52;96.24
50774;BME280;36745;48.544;8.918;2023-12-28T03:52:11;97552.88;;;0.54;96.29
50774;BME280;36745;48.544;8.918;2023-12-28T03:55:31;97561.03;;;0.54;96.57
50774;BME280;36745;48.544;8.918;2023-12-28T03:58:51;97552.13;;;0.57;96.53
50774;BME280;36745;48.544;8.918;2023-12-28T04:02:11;97543.31;;;0.63;96.60
50774;BME280;36745;48.544;8.918;2023-12-28T04:05:31;97542.19;;;0.68;96.20
50774;BME280;36745;48.544;8.918;2023-12-28T04:08:50;97562.34;;;0.70;96.33
50774;BME280;36745;48.544;8.918;2023-12-28T04:12:10;97565.03;;;0.67;96.36
50774;BME280;36745;48.544;8.918;2023-12-28T04:15:30;97557.66;;;0.64;96.02
50774;BME280;36745;48.544;8.918;2023-12-28T04:18:50;97564.72;;;0.72;96.50
50774;BME280;36745;48.544;8.918;2023-12-28T04:22:10;97557.81;;;0.78;96.07
50774;BME280;36745;48.544;8.918;2023-12-28T04:25:30;97552.41;;;0.81;96.36
50774;BME280;36745;48.544;8.918;2023-12-28T04:28:50;97543.22;;;0.90;96.82
50774;BME280;36745;48.544;8.918;2023-12-28T04:32:09;97538.56;;;0.90;96.80
50774;BME280;36745;48.544;8.918;2023-12-28T04:35:29;97541.38;;;0.97;96.77
50774;BME280;36745;48.544;8.918;2023-12-28T04:38:49;97537.91;;;1.00;95.76
50774;BME280;36745;48.544;8.918;2023-12-28T04:42:09;97539.84;;;1.03;95.67
50774;BME280;36745;48.544;8.918;2023-12-28T04:45:29;97537.94;;;1.04;95.24
50774;BME280;36745;48.544;8.918;2023-12-28T04:48:48;97523.97;;;1.02;95.79
50774;BME280;36745;48.544;8.918;2023-12-28T04:52:08;97523.22;;;1.08;96.00
50774;BME280;36745;48.544;8.918;2023-12-28T04:55:28;97507.81;;;1.16;95.96
50774;BME280;36745;48.544;8.918;2023-12-28T04:58:48;97518.03;;;1.30;96.59
50774;BME280;36745;48.544;8.918;2023-12-28T05:02:08;97515.06;;;1.49;96.57
50774;BME280;36745;48.544;8.918;2023-12-28T05:05:27;97525.19;;;1.52;95.99
50774;BME280;36745;48.544;8.918;2023-12-28T05:08:47;97531.44;;;1.56;96.35
50774;BME280;36745;48.544;8.918;2023-12-28T05:12:07;97537.41;;;1.72;96.57
50774;BME280;36745;48.544;8.918;2023-12-28T05:15:27;97544.72;;;1.68;95.06
50774;BME280;36745;48.544;8.918;2023-12-28T05:18:47;97547.50;;;1.75;95.79
50774;BME280;36745;48.544;8.918;2023-12-28T05:22:06;97551.03;;;1.79;96.13
50774;BME280;36745;48.544;8.918;2023-12-28T05:25:30;97561.94;;;1.86;96.70
50774;BME280;36745;48.544;8.918;2023-12-28T05:28:49;97555.81;;;1.96;96.40
50774;BME280;36745;48.544;8.918;2023-12-28T05:32:09;97555.00;;;1.92;95.02
50774;BME280;36745;48.544;8.918;2023-12-28T05:35:29;97563.59;;;1.94;95.04
50774;BME280;36745;48.544;8.918;2023-12-28T05:38:49;97564.41;;;2.05;95.16
50774;BME280;36745;48.544;8.918;2023-12-28T05:42:08;97550.56;;;2.21;95.06
50774;BME280;36745;48.544;8.918;2023-12-28T05:45:28;97561.44;;;2.25;94.59
50774;BME280;36745;48.544;8.918;2023-12-28T05:48:48;97546.00;;;2.43;94.39
50774;BME280;36745;48.544;8.918;2023-12-28T05:52:08;97553.81;;;2.55;94.43
50774;BME280;36745;48.544;8.918;2023-12-28T05:55:28;97553.03;;;2.51;93.86
50774;BME280;36745;48.544;8.918;2023-12-28T05:58:48;97546.06;;;2.57;94.46
50774;BME280;36745;48.544;8.918;2023-12-28T06:02:08;97550.34;;;2.58;93.63
50774;BME280;36745;48.544;8.918;2023-12-28T06:05:27;97547.59;;;2.51;93.65
50774;BME280;36745;48.544;8.918;2023-12-28T06:08:47;97546.44;;;2.56;93.45
50774;BME280;36745;48.544;8.918;2023-12-28T06:12:07;97553.81;;;2.55;93.37
50774;BME280;36745;48.544;8.918;2023-12-28T06:15:27;97547.22;;;2.60;93.69
50774;BME280;36745;48.544;8.918;2023-12-28T06:18:47;97554.22;;;2.57;93.30
50774;BME280;36745;48.544;8.918;2023-12-28T06:22:07;97555.03;;;2.61;93.33
50774;BME280;36745;48.544;8.918;2023-12-28T06:25:26;97560.50;;;2.68;93.78
50774;BME280;36745;48.544;8.918;2023-12-28T06:28:46;97557.75;;;2.61;94.33
50774;BME280;36745;48.544;8.918;2023-12-28T06:32:06;97560.13;;;2.73;93.87
50774;BME280;36745;48.544;8.918;2023-12-28T06:35:26;97560.56;;;2.79;94.43
50774;BME280;36745;48.544;8.918;2023-12-28T06:38:46;97563.28;;;2.82;93.77
50774;BME280;36745;48.544;8.918;2023-12-28T06:42:05;97567.94;;;2.82;94.49
50774;BME280;36745;48.544;8.918;2023-12-28T06:45:25;97570.28;;;2.87;94.41
50774;BME280;36745;48.544;8.918;2023-12-28T06:48:47;97557.13;;;2.96;94.33
50774;BME280;36745;48.544;8.918;2023-12-28T06:52:07;97571.94;;;3.13;94.24
50774;BME280;36745;48.544;8.918;2023-12-28T06:55:26;97577.41;;;3.13;94.03
50774;BME280;36745;48.544;8.918;2023-12-28T06:58:46;97577.44;;;3.27;93.83
50774;BME280;36745;48.544;8.918;2023-12-28T07:02:06;97556.84;;;3.40;93.67
50774;BME280;36745;48.544;8.918;2023-12-28T07:05:26;97568.13;;;3.63;94.20
50774;BME280;36745;48.544;8.918;2023-12-28T07:08:45;97572.81;;;3.80;93.24
50774;BME280;36745;48.544;8.918;2023-12-28T07:12:06;97572.03;;;3.91;93.47
50774;BME280;36745;48.544;8.918;2023-12-28T07:15:26;97577.50;;;4.01;93.19
50774;BME280;36745;48.544;8.918;2023-12-28T07:18:45;97573.22;;;4.14;93.35
50774;BME280;36745;48.544;8.918;2023-12-28T07:22:05;97569.28;;;4.12;92.77
50774;BME280;36745;48.544;8.918;2023-12-28T07:25:25;97574.00;;;4.15;93.11
50774;BME280;36745;48.544;8.918;2023-12-28T07:28:45;97581.38;;;4.25;93.33
50774;BME280;36745;48.544;8.918;2023-12-28T07:32:08;97577.09;;;4.31;93.31
50774;BME280;36745;48.544;8.918;2023-12-28T07:35:29;97578.63;;;4.39;93.13
50774;BME280;36745;48.544;8.918;2023-12-28T07:38:49;97573.94;;;4.36;92.61
50774;BME280;36745;48.544;8.918;2023-12-28T07:42:08;97560.69;;;4.42;92.81
50774;BME280;36745;48.544;8.918;2023-12-28T07:45:29;97562.59;;;4.55;92.73
50774;BME280;36745;48.544;8.918;2023-12-28T07:48:49;97568.03;;;4.59;92.25
50774;BME280;36745;48.544;8.918;2023-12-28T07:52:08;97562.97;;;4.57;92.31
50774;BME280;36745;48.544;8.918;2023-12-28T07:55:28;97576.59;;;4.68;92.78
50774;BME280;36745;48.544;8.918;2023-12-28T07:58:48;97582.06;;;4.64;92.60
50774;BME280;36745;48.544;8.918;2023-12-28T08:02:08;97589.06;;;4.80;92.22
50774;BME280;36745;48.544;8.918;2023-12-28T08:05:28;97604.63;;;4.90;92.34
50774;BME280;36745;48.544;8.918;2023-12-28T08:08:48;97603.84;;;4.89;92.41
50774;BME280;36745;48.544;8.918;2023-12-28T08:12:07;97608.53;;;4.89;92.04
50774;BME280;36745;48.544;8.918;2023-12-28T08:15:27;97607.75;;;4.85;92.07
50774;BME280;36745;48.544;8.918;2023-12-28T08:18:47;97619.06;;;4.90;92.87
50774;BME280;36745;48.544;8.918;2023-12-28T08:22:07;97603.03;;;4.96;93.01
50774;BME280;36745;48.544;8.918;2023-12-28T08:25:27;97601.84;;;4.97;92.25
50774;BME280;36745;48.544;8.918;2023-12-28T08:28:48;97602.22;;;5.06;93.24
50774;BME280;36745;48.544;8.918;2023-12-28T08:32:08;97612.28;;;5.23;93.12
50774;BME280;36745;48.544;8.918;2023-12-28T08:35:27;97613.88;;;5.17;93.38
50774;BME280;36745;48.544;8.918;2023-12-28T08:38:47;97614.66;;;5.14;93.31
50774;BME280;36745;48.544;8.918;2023-12-28T08:42:07;97613.03;;;5.27;93.55
50774;BME280;36745;48.544;8.918;2023-12-28T08:45:27;97610.69;;;5.29;93.12
50774;BME280;36745;48.544;8.918;2023-12-28T08:48:47;97614.53;;;5.42;93.93
50774;BME280;36745;48.544;8.918;2023-12-28T08:52:07;97619.56;;;5.47;93.84
50774;BME280;36745;48.544;8.918;2023-12-28T08:55:27;97609.03;;;5.49;93.68
50774;BME280;36745;48.544;8.918;2023-12-28T08:58:47;97622.22;;;5.62;94.42
50774;BME280;36745;48.544;8.918;2023-12-28T09:02:07;97611.16;;;5.83;93.72
50774;BME280;36745;48.544;8.918;2023-12-28T09:05:26;97602.56;;;5.88;93.55
50774;BME280;36745;48.544;8.918;2023-12-28T09:08:51;97589.94;;;6.01;94.27
50774;BME280;36745;48.544;8.918;2023-12-28T09:12:12;97594.53;;;6.11;93.61
50774;BME280;36745;48.544;8.918;2023-12-28T09:15:31;97596.09;;;6.12;93.71
50774;BME280;36745;48.544;8.918;2023-12-28T09:18:51;97598.34;;;6.24;93.90
50774;BME280;36745;48.544;8.918;2023-12-28T09:22:11;97604.41;;;6.43;93.49
50774;BME280;36745;48.544;8.918;2023-12-28T09:25:31;97604.22;;;6.64;93.39
50774;BME280;36745;48.544;8.918;2023-12-28T09:28:51;97618.09;;;6.84;93.50
50774;BME280;36745;48.544;8.918;2023-12-28T09:32:11;97634.44;;;6.94;93.26
50774;BME280;36745;48.544;8.918;2023-12-28T09:35:31;97639.78;;;7.05;93.12
50774;BME280;36745;48.544;8.918;2023-12-28T09:38:51;97641.22;;;7.16;92.95
50774;BME280;36745;48.544;8.918;2023-12-28T09:42:16;97638.47;;;7.16;91.37
50774;BME280;36745;48.544;8.918;2023-12-28T09:45:36;97643.50;;;7.22;91.80
50774;BME280;36745;48.544;8.918;2023-12-28T09:48:57;97651.34;;;7.20;91.78
50774;BME280;36745;48.544;8.918;2023-12-28T09:52:17;97646.19;;;7.29;92.07
50774;BME280;36745;48.544;8.918;2023-12-28T09:55:38;97652.66;;;7.42;91.61
50774;BME280;36745;48.544;8.918;2023-12-28T09:58:58;97652.94;;;7.51;91.38
50774;BME280;36745;48.544;8.918;2023-12-28T10:02:19;97647.28;;;7.65;91.75
50774;BME280;36745;48.544;8.918;2023-12-28T10:05:40;97651.44;;;7.73;91.33
50774;BME280;36745;48.544;8.918;2023-12-28T10:09:00;97649.25;;;7.91;91.24
50774;BME280;36745;48.544;8.918;2023-12-28T10:12:20;97643.06;;;8.11;91.53
50774;BME280;36745;48.544;8.918;2023-12-28T10:15:40;97638.06;;;8.29;90.51
50774;BME280;36745;48.544;8.918;2023-12-28T10:18:59;97632.63;;;8.52;90.85
50774;BME280;36745;48.544;8.918;2023-12-28T10:22:19;97624.41;;;8.72;90.44
50774;BME280;36745;48.544;8.918;2023-12-28T10:25:39;97631.25;;;8.83;90.14
50774;BME280;36745;48.544;8.918;2023-12-28T10:28:59;97631.56;;;8.89;88.99
50774;BME280;36745;48.544;8.918;2023-12-28T10:32:21;97622.44;;;8.92;89.00
50774;BME280;36745;48.544;8.918;2023-12-28T10:35:43;97622.41;;;8.96;88.55
50774;BME280;36745;48.544;8.918;2023-12-28T10:39:05;97614.84;;;9.00;88.23
50774;BME280;36745;48.544;8.918;2023-12-28T10:42:32;97605.41;;;9.01;87.66
50774;BME280;36745;48.544;8.918;2023-12-28T10:45:54;97602.88;;;9.10;87.47
50774;BME280;36745;48.544;8.918;2023-12-28T10:49:16;97594.91;;;9.15;87.37
50774;BME280;36745;48.544;8.918;2023-12-28T10:52:36;97599.41;;;9.25;87.81
50774;BME280;36745;48.544;8.918;2023-12-28T10:56:36;97597.63;;;9.35;87.84
50774;BME280;36745;48.544;8.918;2023-12-28T11:00:11;97591.97;;;9.42;87.68
50774;BME280;36745;48.544;8.918;2023-12-28T11:03:34;97594.13;;;9.51;87.31
50774;BME280;36745;48.544;8.918;2023-12-28T11:06:58;97578.94;;;9.62;86.73
50774;BME280;36745;48.544;8.918;2023-12-28T11:10:20;97584.16;;;9.77;87.11
50774;BME280;36745;48.544;8.918;2023-12-28T11:13:44;97583.19;;;9.83;86.28
50774;BME280;36745;48.544;8.918;2023-12-28T11:17:04;97585.50;;;9.85;85.91
50774;BME280;36745;48.544;8.918;2023-12-28T11:20:24;97582.75;;;9.85;86.03
50774;BME280;36745;48.544;8.918;2023-12-28T11:23:45;97591.03;;;9.85;85.66
50774;BME280;36745;48.544;8.918;2023-12-28T11:27:06;97583.13;;;9.87;85.79
50774;BME280;36745;48.544;8.918;2023-12-28T11:30:26;97575.97;;;9.89;85.92
50774;BME280;36745;48.544;8.918;2023-12-28T11:33:50;97575.19;;;9.89;84.85
50774;BME280;36745;48.544;8.918;2023-12-28T11:37:16;97579.66;;;9.99;85.93
50774;BME280;36745;48.544;8.918;2023-12-28T11:40:42;97571.59;;;10.08;85.68
50774;BME280;36745;48.544;8.918;2023-12-28T11:44:04;97558.38;;;10.19;86.08
50774;BME280;36745;48.544;8.918;2023-12-28T11:47:25;97571.94;;;10.26;85.99
50774;BME280;36745;48.544;8.918;2023-12-28T11:50:46;97558.09;;;10.30;86.24
50774;BME280;36745;48.544;8.918;2023-12-28T11:54:06;97557.16;;;10.36;86.32
50774;BME280;36745;48.544;8.918;2023-12-28T11:57:26;97558.13;;;10.42;85.89
50774;BME280;36745;48.544;8.918;2023-12-28T12:00:47;97554.38;;;10.36;85.84
50774;BME280;36745;48.544;8.918;2023-12-28T12:04:07;97554.38;;;10.36;85.72
50774;BME280;36745;48.544;8.918;2023-12-28T12:07:27;97537.94;;;10.33;85.46
50774;BME280;36745;48.544;8.918;2023-12-28T12:10:47;97533.88;;;10.37;85.48
50774;BME280;36745;48.544;8.918;2023-12-28T12:14:10;97528.81;;;10.36;85.47
50774;BME280;36745;48.544;8.918;2023-12-28T12:17:30;97533.97;;;10.34;85.22
50774;BME280;36745;48.544;8.918;2023-12-28T12:20:50;97525.81;;;10.30;85.45
50774;BME280;36745;48.544;8.918;2023-12-28T12:24:10;97524.25;;;10.29;85.51
50774;BME280;36745;48.544;8.918;2023-12-28T12:27:29;97528.88;;;10.32;85.80
50774;BME280;36745;48.544;8.918;2023-12-28T12:30:54;97527.69;;;10.33;85.92
50774;BME280;36745;48.544;8.918;2023-12-28T12:34:17;97531.63;;;10.32;85.59
50774;BME280;36745;48.544;8.918;2023-12-28T12:37:37;97530.19;;;10.28;85.61
50774;BME280;36745;48.544;8.918;2023-12-28T12:40:57;97534.41;;;10.16;85.52
50774;BME280;36745;48.544;8.918;2023-12-28T12:44:19;97533.59;;;10.16;85.59
50774;BME280;36745;48.544;8.918;2023-12-28T12:47:39;97536.56;;;10.08;85.53
50774;BME280;36745;48.544;8.918;2023-12-28T12:51:02;97532.00;;;10.02;85.54
50774;BME280;36745;48.544;8.918;2023-12-28T12:54:22;97528.72;;;10.07;85.83
50774;BME280;36745;48.544;8.918;2023-12-28T12:57:42;97540.25;;;10.02;85.76
50774;BME280;36745;48.544;8.918;2023-12-28T13:01:02;97533.19;;;10.01;85.63
50774;BME280;36745;48.544;8.918;2023-12-28T13:04:22;97547.31;;;10.03;86.28
50774;BME280;36745;48.544;8.918;2023-12-28T13:07:42;97540.34;;;9.98;86.43
50774;BME280;36745;48.544;8.918;2023-12-28T13:11:01;97541.72;;;10.06;86.58
50774;BME280;36745;48.544;8.918;2023-12-28T13:14:21;97541.63;;;10.10;86.28
50774;BME280;36745;48.544;8.918;2023-12-28T13:17:41;97541.31;;;9.92;86.55
50774;BME280;36745;48.544;8.918;2023-12-28T13:21:02;97538.03;;;9.97;86.77
50774;BME280;36745;48.544;8.918;2023-12-28T13:24:22;97530.88;;;9.99;86.69
50774;BME280;36745;48.544;8.918;2023-12-28T13:27:42;97532.16;;;9.95;86.45
50774;BME280;36745;48.544;8.918;2023-12-28T13:31:02;97545.09;;;9.98;86.73
50774;BME280;36745;48.544;8.918;2023-12-28T13:34:22;97545.09;;;9.98;87.16
50774;BME280;36745;48.544;8.918;2023-12-28T13:37:42;97534.75;;;10.02;86.95
50774;BME280;36745;48.544;8.918;2023-12-28T13:41:02;97532.53;;;9.97;87.54
50774;BME280;36745;48.544;8.918;2023-12-28T13:44:21;97535.59;;;9.99;87.54
50774;BME280;36745;48.544;8.918;2023-12-28T13:47:41;97529.00;;;9.96;87.80
50774;BME280;36745;48.544;8.918;2023-12-28T13:51:03;97520.72;;;9.96;88.29
50774;BME280;36745;48.544;8.918;2023-12-28T13:54:23;97523.91;;;9.95;88.83
50774;BME280;36745;48.544;8.918;2023-12-28T13:57:42;97520.38;;;9.94;89.06
50774;BME280;36745;48.544;8.918;2023-12-28T14:01:02;97527.19;;;9.90;89.40
50774;BME280;36745;48.544;8.918;2023-12-28T14:04:22;97518.59;;;9.88;90.09
50774;BME280;36745;48.544;8.918;2023-12-28T14:07:43;97508.53;;;9.81;90.43
50774;BME280;36745;48.544;8.918;2023-12-28T14:11:03;97500.06;;;9.72;91.04
50774;BME280;36745;48.544;8.918;2023-12-28T14:14:22;97513.41;;;9.74;91.18
50774;BME280;36745;48.544;8.918;2023-12-28T14:17:42;97511.16;;;9.68;91.84
50774;BME280;36745;48.544;8.918;2023-12-28T14:21:02;97512.81;;;9.66;91.77
50774;BME280;36745;48.544;8.918;2023-12-28T14:24:23;97522.44;;;9.58;92.52
50774;BME280;36745;48.544;8.918;2023-12-28T14:27:43;97519.41;;;9.52;92.33
50774;BME280;36745;48.544;8.918;2023-12-28T14:31:03;97530.94;;;9.47;93.30
50774;BME280;36745;48.544;8.918;2023-12-28T14:34:22;97516.81;;;9.45;93.01
50774;BME280;36745;48.544;8.918;2023-12-28T14:37:46;97532.38;;;9.36;93.49
50774;BME280;36745;48.544;8.918;2023-12-28T14:41:05;97530.91;;;9.31;94.05
50774;BME280;36745;48.544;8.918;2023-12-28T14:44:25;97522.91;;;9.37;93.90
50774;BME280;36745;48.544;8.918;2023-12-28T14:47:45;97526.25;;;9.28;94.23
50774;BME280;36745;48.544;8.918;2023-12-28T14:51:04;97533.09;;;9.20;95.39
50774;BME280;36745;48.544;8.918;2023-12-28T14:54:24;97542.06;;;9.24;95.01
50774;BME280;36745;48.544;8.918;2023-12-28T14:57:44;97527.97;;;9.22;94.88
50774;BME280;36745;48.544;8.918;2023-12-28T15:01:05;97527.47;;;9.27;94.50
50774;BME280;36745;48.544;8.918;2023-12-28T15:04:24;97517.66;;;9.26;94.28
50774;BME280;36745;48.544;8.918;2023-12-28T15:07:44;97522.78;;;9.24;94.83
50774;BME280;36745;48.544;8.918;2023-12-28T15:11:04;97512.16;;;9.26;94.55
50774;BME280;36745;48.544;8.918;2023-12-28T15:14:26;97513.84;;;9.20;94.74
50774;BME280;36745;48.544;8.918;2023-12-28T15:17:46;97519.78;;;9.18;94.43
50774;BME280;36745;48.544;8.918;2023-12-28T15:21:06;97522.19;;;9.16;94.45
50774;BME280;36745;48.544;8.918;2023-12-28T15:24:26;97526.56;;;9.14;94.61
50774;BME280;36745;48.544;8.918;2023-12-28T15:27:46;97525.66;;;9.01;94.16
50774;BME280;36745;48.544;8.918;2023-12-28T15:31:05;97509.69;;;8.96;94.46
50774;BME280;36745;48.544;8.918;2023-12-28T15:34:25;97517.88;;;8.79;94.60
50774;BME280;36745;48.544;8.918;2023-12-28T15:37:45;97526.09;;;8.79;94.38
50774;BME280;36745;48.544;8.918;2023-12-28T15:41:05;97522.31;;;8.73;94.38
50774;BME280;36745;48.544;8.918;2023-12-28T15:44:24;97519.19;;;8.71;94.48
50774;BME280;36745;48.544;8.918;2023-12-28T15:47:44;97518.97;;;8.62;94.29
50774;BME280;36745;48.544;8.918;2023-12-28T15:51:04;97519.59;;;8.50;94.56
50774;BME280;36745;48.544;8.918;2023-12-28T15:54:24;97522.56;;;8.39;94.84
50774;BME280;36745;48.544;8.918;2023-12-28T15:57:44;97532.16;;;8.28;94.70
50774;BME280;36745;48.544;8.918;2023-12-28T16:01:03;97526.84;;;8.17;95.20
50774;BME280;36745;48.544;8.918;2023-12-28T16:04:23;97528.47;;;8.15;95.68
50774;BME280;36745;48.544;8.918;2023-12-28T16:07:43;97531.69;;;8.10;96.37
50774;BME280;36745;48.544;8.918;2023-12-28T16:11:06;97529.19;;;8.19;96.37
50774;BME280;36745;48.544;8.918;2023-12-28T16:14:26;97512.47;;;8.10;96.49
50774;BME280;36745;48.544;8.918;2023-12-28T16:17:45;97512.00;;;8.15;97.32
50774;BME280;36745;48.544;8.918;2023-12-28T16:21:06;97515.16;;;8.13;96.90
50774;BME280;36745;48.544;8.918;2023-12-28T16:24:26;97508.03;;;8.16;97.39
50774;BME280;36745;48.544;8.918;2023-12-28T16:27:46;97521.72;;;8.19;97.24
50774;BME280;36745;48.544;8.918;2023-12-28T16:31:06;97512.00;;;8.15;97.36
50774;BME280;36745;48.544;8.918;2023-12-28T16:34:28;97532.44;;;8.10;98.11
50774;BME280;36745;48.544;8.918;2023-12-28T16:37:48;97530.84;;;8.13;98.08
50774;BME280;36745;48.544;8.918;2023-12-28T16:41:08;97520.56;;;8.17;98.42
50774;BME280;36745;48.544;8.918;2023-12-28T16:44:27;97527.56;;;8.21;98.01
50774;BME280;36745;48.544;8.918;2023-12-28T16:47:47;97524.75;;;8.25;98.05
50774;BME280;36745;48.544;8.918;2023-12-28T16:51:09;97520.47;;;8.24;98.49
50774;BME280;36745;48.544;8.918;2023-12-28T16:54:28;97528.22;;;8.29;98.19
50774;BME280;36745;48.544;8.918;2023-12-28T16:57:48;97519.59;;;8.27;98.67
50774;BME280;36745;48.544;8.918;2023-12-28T17:01:08;97516.06;;;8.30;98.84
50774;BME280;36745;48.544;8.918;2023-12-28T17:04:28;97525.47;;;8.29;98.95
50774;BME280;36745;48.544;8.918;2023-12-28T17:07:48;97533.69;;;8.29;98.84
50774;BME280;36745;48.544;8.918;2023-12-28T17:11:08;97511.72;;;8.29;98.84
50774;BME280;36745;48.544;8.918;2023-12-28T17:14:28;97522.63;;;8.36;98.74
50774;BME280;36745;48.544;8.918;2023-12-28T17:17:48;97510.91;;;8.32;99.43
50774;BME280;36745;48.544;8.918;2023-12-28T17:21:12;97511.72;;;8.29;99.10
50774;BME280;36745;48.544;8.918;2023-12-28T17:24:43;97513.31;;;8.30;99.23
50774;BME280;36745;48.544;8.918;2023-12-28T17:28:15;97510.09;;;8.35;98.87
50774;BME280;36745;48.544;8.918;2023-12-28T17:31:37;97509.47;;;8.24;99.14
50774;BME280;36745;48.544;8.918;2023-12-28T17:34:57;97509.84;;;8.26;98.92
50774;BME280;36745;48.544;8.918;2023-12-28T17:38:17;97512.59;;;8.26;99.39
50774;BME280;36745;48.544;8.918;2023-12-28T17:41:38;97518.31;;;8.35;99.16
50774;BME280;36745;48.544;8.918;2023-12-28T17:44:58;97514.88;;;8.31;98.91
50774;BME280;36745;48.544;8.918;2023-12-28T17:48:22;97511.44;;;8.23;99.29
50774;BME280;36745;48.544;8.918;2023-12-28T17:51:44;97518.19;;;8.19;99.19
50774;BME280;36745;48.544;8.918;2023-12-28T17:55:06;97517.50;;;8.15;99.67
50774;BME280;36745;48.544;8.918;2023-12-28T17:58:25;97510.47;;;8.10;99.73